createdAt,value
2022-12-11T00:01:58.379Z,93065.66
2022-12-11T00:04:25.026Z,93067.25
2022-12-11T00:06:52.608Z,93062.06
2022-12-11T00:09:20.519Z,93068.63
2022-12-11T00:11:47.567Z,93062.22
2022-12-11T00:14:15.487Z,93059.13
2022-12-11T00:16:42.239Z,93064.13
2022-12-11T00:19:09.009Z,93056.47
2022-12-11T00:21:36.175Z,93054.19
2022-12-11T00:24:02.836Z,93054.72
2022-12-11T00:26:29.512Z,93057.41
2022-12-11T00:28:57.157Z,93052.03
2022-12-11T00:31:24.780Z,93051.94
2022-12-11T00:33:51.706Z,93051.69
2022-12-11T00:36:21.255Z,93057.16
2022-12-11T00:38:49.212Z,93044.88
2022-12-11T00:41:18.894Z,93048.69
2022-12-11T00:43:46.269Z,93050.41
2022-12-11T00:46:13.449Z,93056.88
2022-12-11T00:48:40.211Z,93055.69
2022-12-11T00:51:07.497Z,93059.47
2022-12-11T00:53:34.166Z,93067.50
2022-12-11T00:56:00.884Z,93075.06
2022-12-11T00:58:27.765Z,93085.41
2022-12-11T01:00:54.622Z,93079.88
2022-12-11T01:03:21.360Z,93089.78
2022-12-11T01:05:52.997Z,93082.00
2022-12-11T01:08:19.741Z,93094.53
2022-12-11T01:10:46.477Z,93100.81
2022-12-11T01:13:13.274Z,93092.81
2022-12-11T01:15:45.299Z,93097.03
2022-12-11T01:18:14.079Z,93102.97
2022-12-11T01:20:42.723Z,93103.50
2022-12-11T01:23:13.163Z,93109.97
2022-12-11T01:25:39.880Z,93105.38
2022-12-11T01:28:07.656Z,93098.25
2022-12-11T01:30:35.784Z,93098.72
2022-12-11T01:33:02.969Z,93103.72
2022-12-11T01:35:29.588Z,93097.25
2022-12-11T01:37:56.315Z,93095.03
2022-12-11T01:40:23.597Z,93088.47
2022-12-11T01:42:50.585Z,93098.38
2022-12-11T01:45:38.958Z,93100.81
2022-12-11T01:48:09.803Z,93095.03
2022-12-11T01:50:42.227Z,93106.84
2022-12-11T01:53:12.254Z,93113.38
2022-12-11T01:55:39.963Z,93112.38
2022-12-11T01:58:06.976Z,93114.13
2022-12-11T02:00:33.635Z,93111.84
2022-12-11T02:03:00.279Z,93114.41
2022-12-11T02:05:26.929Z,93112.72
2022-12-11T02:07:58.453Z,93108.78
2022-12-11T02:10:44.447Z,93116.00
2022-12-11T02:13:39.763Z,93119.09
2022-12-11T02:16:16.726Z,93133.09
2022-12-11T02:18:53.518Z,93133.69
2022-12-11T02:21:23.028Z,93133.50
2022-12-11T02:24:18.916Z,93142.16
2022-12-11T02:27:16.329Z,93134.19
2022-12-11T02:30:09.341Z,93131.09
2022-12-11T02:32:55.631Z,93136.63
2022-12-11T02:35:35.546Z,93136.56
2022-12-11T02:38:08.051Z,93134.53
2022-12-11T02:40:38.418Z,93134.97
2022-12-11T02:43:09.907Z,93130.16
2022-12-11T02:45:39.707Z,93131.72
2022-12-11T02:48:09.943Z,93120.41
2022-12-11T02:50:42.393Z,93130.56
2022-12-11T02:53:12.383Z,93123.38
2022-12-11T02:55:41.447Z,93128.50
2022-12-11T02:58:26.897Z,93130.13
2022-12-11T03:00:53.595Z,93129.88
2022-12-11T03:03:20.914Z,93137.16
2022-12-11T03:05:47.835Z,93133.22
2022-12-11T03:08:17.497Z,93129.69
2022-12-11T03:10:45.547Z,93139.41
2022-12-11T03:13:16.346Z,93131.88
2022-12-11T03:16:03.972Z,93145.31
2022-12-11T03:18:50.007Z,93142.47
2022-12-11T03:21:24.747Z,93147.03
2022-12-11T03:24:05.222Z,93150.50
2022-12-11T03:26:38.315Z,93131.91
2022-12-11T03:29:15.773Z,93134.72
2022-12-11T03:31:46.334Z,93133.47
2022-12-11T03:34:24.711Z,93131.00
2022-12-11T03:36:53.704Z,93132.81
2022-12-11T03:39:32.519Z,93134.72
2022-12-11T03:42:05.894Z,93126.44
2022-12-11T03:44:34.990Z,93128.66
2022-12-11T03:47:05.807Z,93137.50
2022-12-11T03:49:37.143Z,93122.97
2022-12-11T03:52:05.730Z,93132.13
2022-12-11T03:54:34.423Z,93135.03
2022-12-11T03:57:04.367Z,93135.59
2022-12-11T03:59:31.006Z,93130.56
2022-12-11T04:01:57.909Z,93134.44
2022-12-11T04:04:24.668Z,93133.88
2022-12-11T04:06:51.415Z,93129.63
2022-12-11T04:09:18.089Z,93131.31
2022-12-11T04:11:44.765Z,93131.09
2022-12-11T04:14:32.751Z,93124.25
2022-12-11T04:17:00.608Z,93129.19
2022-12-11T04:19:45.881Z,93132.25
2022-12-11T04:22:33.024Z,93133.69
2022-12-11T04:25:00.406Z,93140.53
2022-12-11T04:27:45.852Z,93135.84
2022-12-11T04:30:19.125Z,93137.56
2022-12-11T04:32:45.714Z,93142.19
2022-12-11T04:35:13.073Z,93138.63
2022-12-11T04:37:39.933Z,93135.44
2022-12-11T04:40:10.659Z,93135.91
2022-12-11T04:42:37.465Z,93132.78
2022-12-11T04:45:05.814Z,93137.66
2022-12-11T04:47:32.428Z,93136.34
2022-12-11T04:49:59.084Z,93132.84
2022-12-11T04:52:25.686Z,93135.91
2022-12-11T04:54:52.374Z,93134.88
2022-12-11T04:57:20.740Z,93132.94
2022-12-11T04:59:47.956Z,93127.06
2022-12-11T05:02:15.757Z,93121.19
2022-12-11T05:04:42.733Z,93121.91
2022-12-11T05:07:09.613Z,93122.03
2022-12-11T05:09:36.595Z,93125.06
2022-12-11T05:12:03.703Z,93129.56
2022-12-11T05:14:32.015Z,93126.69
2022-12-11T05:16:59.670Z,93132.47
2022-12-11T05:19:26.978Z,93130.50
2022-12-11T05:21:53.859Z,93129.00
2022-12-11T05:24:20.603Z,93125.16
2022-12-11T05:26:47.188Z,93128.59
2022-12-11T05:29:13.826Z,93124.94
2022-12-11T05:31:40.540Z,93118.50
2022-12-11T05:34:07.186Z,93121.47
2022-12-11T05:36:34.392Z,93121.25
2022-12-11T05:39:02.065Z,93114.75
2022-12-11T05:41:31.016Z,93114.50
2022-12-11T05:43:57.626Z,93107.47
2022-12-11T05:46:27.161Z,93100.00
2022-12-11T05:49:00.301Z,93109.69
2022-12-11T05:51:28.229Z,93115.72
2022-12-11T05:53:56.573Z,93116.91
2022-12-11T05:56:26.831Z,93118.53
2022-12-11T05:58:54.501Z,93122.75
2022-12-11T06:01:28.515Z,93123.09
2022-12-11T06:03:56.318Z,93119.28
2022-12-11T06:06:23.972Z,93113.34
2022-12-11T06:08:51.929Z,93098.47
2022-12-11T06:11:23.800Z,93099.88
2022-12-11T06:13:52.039Z,93094.47
2022-12-11T06:16:18.848Z,93100.28
2022-12-11T06:18:45.859Z,93100.59
2022-12-11T06:21:19.849Z,93102.03
2022-12-11T06:23:48.136Z,93101.41
2022-12-11T06:26:15.883Z,93099.38
2022-12-11T06:28:42.651Z,93097.03
2022-12-11T06:31:10.024Z,93094.09
2022-12-11T06:33:36.823Z,93087.25
2022-12-11T06:36:05.628Z,93090.50
2022-12-11T06:38:32.566Z,93089.75
2022-12-11T06:41:01.895Z,93095.84
2022-12-11T06:43:28.500Z,93095.53
2022-12-11T06:45:59.189Z,93099.59
2022-12-11T06:48:28.825Z,93096.94
2022-12-11T06:50:55.479Z,93096.63
2022-12-11T06:53:22.141Z,93098.84
2022-12-11T06:55:48.755Z,93103.38
2022-12-11T06:58:15.434Z,93102.75
2022-12-11T07:00:42.251Z,93098.22
2022-12-11T07:03:10.037Z,93095.25
2022-12-11T07:05:36.695Z,93097.09
2022-12-11T07:08:03.423Z,93094.91
2022-12-11T07:10:30.136Z,93100.56
2022-12-11T07:12:56.744Z,93098.84
2022-12-11T07:15:23.455Z,93097.88
2022-12-11T07:17:50.069Z,93106.13
2022-12-11T07:20:17.322Z,93113.44
2022-12-11T07:22:46.705Z,93114.38
2022-12-11T07:25:14.695Z,93112.31
2022-12-11T07:27:41.915Z,93107.91
2022-12-11T07:30:09.538Z,93110.78
2022-12-11T07:32:36.406Z,93109.38
2022-12-11T07:35:03.741Z,93112.47
2022-12-11T07:37:30.342Z,93106.75
2022-12-11T07:39:57.022Z,93108.38
2022-12-11T07:42:23.742Z,93111.66
2022-12-11T07:44:50.451Z,93110.81
2022-12-11T07:47:17.066Z,93107.41
2022-12-11T07:49:43.661Z,93114.25
2022-12-11T07:52:10.458Z,93110.78
2022-12-11T07:54:37.192Z,93110.66
2022-12-11T07:57:03.852Z,93112.69
2022-12-11T07:59:31.002Z,93109.94
2022-12-11T08:01:57.784Z,93103.09
2022-12-11T08:04:24.503Z,93118.91
2022-12-11T08:06:51.129Z,93120.22
2022-12-11T08:09:21.239Z,93117.13
2022-12-11T08:11:50.484Z,93115.38
2022-12-11T08:14:18.004Z,93119.69
2022-12-11T08:16:44.821Z,93124.19
2022-12-11T08:19:12.383Z,93118.97
2022-12-11T08:21:40.083Z,93121.50
2022-12-11T08:24:07.931Z,93117.78
2022-12-11T08:26:34.817Z,93111.88
2022-12-11T08:29:02.581Z,93110.31
2022-12-11T08:31:29.754Z,93109.13
2022-12-11T08:33:56.849Z,93109.31
2022-12-11T08:36:23.990Z,93108.91
2022-12-11T08:38:51.785Z,93107.34
2022-12-11T08:41:20.826Z,93099.50
2022-12-11T08:43:48.174Z,93105.34
2022-12-11T08:46:15.346Z,93100.22
2022-12-11T08:48:43.211Z,93092.34
2022-12-11T08:51:15.756Z,93105.25
2022-12-11T08:53:43.012Z,93115.44
2022-12-11T08:56:18.011Z,93100.84
2022-12-11T08:58:45.792Z,93094.31
2022-12-11T09:01:15.723Z,93105.78
2022-12-11T09:03:42.638Z,93100.38
2022-12-11T09:06:12.327Z,93095.72
2022-12-11T09:08:38.966Z,93103.69
2022-12-11T09:11:08.207Z,93091.22
2022-12-11T09:13:35.330Z,93092.41
2022-12-11T09:16:05.550Z,93088.50
2022-12-11T09:18:32.539Z,93088.25
2022-12-11T09:21:01.243Z,93073.44
2022-12-11T09:23:27.957Z,93074.19
2022-12-11T09:25:54.641Z,93076.59
2022-12-11T09:28:21.996Z,93068.03
2022-12-11T09:30:48.753Z,93073.28
2022-12-11T09:33:15.517Z,93076.72
2022-12-11T09:35:42.499Z,93075.91
2022-12-11T09:38:09.739Z,93068.88
2022-12-11T09:40:43.298Z,93063.63
2022-12-11T09:43:26.965Z,93069.19
2022-12-11T09:45:55.197Z,93068.19
2022-12-11T09:48:26.104Z,93069.03
2022-12-11T09:50:54.999Z,93066.72
2022-12-11T09:53:34.459Z,93059.50
2022-12-11T09:56:15.817Z,93058.34
2022-12-11T09:59:14.604Z,93049.53
2022-12-11T10:01:59.135Z,93046.34
2022-12-11T10:05:04.848Z,93038.94
2022-12-11T10:07:45.407Z,93037.16
2022-12-11T10:10:40.179Z,93024.78
2022-12-11T10:13:34.812Z,93020.88
2022-12-11T10:16:17.807Z,93014.25
2022-12-11T10:18:44.712Z,93013.22
2022-12-11T10:21:14.255Z,93014.72
2022-12-11T10:23:48.788Z,93018.44
2022-12-11T10:26:21.264Z,93021.22
2022-12-11T10:28:47.990Z,93010.91
2022-12-11T10:31:38.148Z,93015.97
2022-12-11T10:34:26.103Z,93009.28
2022-12-11T10:37:00.194Z,93000.31
2022-12-11T10:39:27.915Z,92998.88
2022-12-11T10:41:56.074Z,92999.94
2022-12-11T10:44:28.150Z,92990.06
2022-12-11T10:47:15.294Z,92993.47
2022-12-11T10:49:59.900Z,92992.44
2022-12-11T10:52:35.075Z,92987.38
2022-12-11T10:55:06.992Z,92991.22
2022-12-11T10:57:39.189Z,92981.94
2022-12-11T11:00:08.887Z,92975.81
2022-12-11T11:02:38.619Z,92976.78
2022-12-11T11:05:34.606Z,92975.16
2022-12-11T11:08:13.798Z,92976.03
2022-12-11T11:11:21.887Z,92964.66
2022-12-11T11:13:48.733Z,92968.41
2022-12-11T11:16:20.863Z,92972.97
2022-12-11T11:18:55.772Z,92959.22
2022-12-11T11:21:26.278Z,92958.56
2022-12-11T11:23:54.251Z,92951.13
2022-12-11T11:26:38.319Z,92947.94
2022-12-11T11:29:27.516Z,92943.66
2022-12-11T11:31:54.308Z,92931.53
2022-12-11T11:34:22.295Z,92945.75
2022-12-11T11:36:57.802Z,92936.16
2022-12-11T11:39:41.382Z,92933.63
2022-12-11T11:42:27.801Z,92940.53
2022-12-11T11:45:10.789Z,92935.09
2022-12-11T11:47:45.251Z,92929.44
2022-12-11T11:50:19.034Z,92934.31
2022-12-11T11:52:51.863Z,92923.16
2022-12-11T11:55:28.379Z,92926.41
2022-12-11T11:58:13.745Z,92914.63
2022-12-11T12:00:40.535Z,92922.88
2022-12-11T12:03:15.080Z,92920.81
2022-12-11T12:06:04.998Z,92912.78
2022-12-11T12:08:48.833Z,92923.69
2022-12-11T12:11:30.798Z,92909.13
2022-12-11T12:14:03.426Z,92907.88
2022-12-11T12:16:53.201Z,92905.16
2022-12-11T12:19:35.507Z,92919.41
2022-12-11T12:22:31.373Z,92917.84
2022-12-11T12:25:00.999Z,92921.59
2022-12-11T12:30:23.025Z,92919.66
2022-12-11T12:33:05.328Z,92926.22
2022-12-11T12:35:36.419Z,92913.44
2022-12-11T12:38:09.454Z,92920.81
2022-12-11T12:41:14.248Z,92913.47
2022-12-11T12:43:56.112Z,92915.78
2022-12-11T12:46:50.799Z,92914.19
2022-12-11T12:49:29.479Z,92909.81
2022-12-11T12:51:57.819Z,92909.72
2022-12-11T12:54:28.504Z,92912.63
2022-12-11T12:56:56.628Z,92917.13
2022-12-11T12:59:28.690Z,92909.03
2022-12-11T13:02:06.400Z,92914.47
2022-12-11T13:07:32.669Z,92922.69
2022-12-11T13:10:25.205Z,92920.88
2022-12-11T13:12:52.401Z,92910.09
2022-12-11T13:15:32.994Z,92912.69
2022-12-11T13:18:01.678Z,92909.09
2022-12-11T13:20:32.099Z,92918.31
2022-12-11T13:23:18.406Z,92923.72
2022-12-11T13:25:57.268Z,92918.75
2022-12-11T13:28:28.278Z,92917.19
2022-12-11T13:31:02.203Z,92914.50
2022-12-11T13:33:30.656Z,92916.41
2022-12-11T13:36:15.775Z,92919.56
2022-12-11T13:38:51.495Z,92912.50
2022-12-11T13:41:20.390Z,92917.31
2022-12-11T13:43:49.781Z,92911.78
2022-12-11T13:46:25.017Z,92912.53
2022-12-11T13:49:00.790Z,92915.00
2022-12-11T13:51:31.519Z,92922.41
2022-12-11T13:54:17.406Z,92914.22
2022-12-11T13:57:03.365Z,92915.38
2022-12-11T13:59:37.372Z,92907.75
2022-12-11T14:02:21.070Z,92918.63
2022-12-11T14:04:50.607Z,92918.22
2022-12-11T14:07:23.927Z,92916.66
2022-12-11T14:09:51.415Z,92914.25
2022-12-11T14:12:21.497Z,92918.44
2022-12-11T14:14:54.906Z,92920.00
2022-12-11T14:17:28.259Z,92923.97
2022-12-11T14:19:58.112Z,92931.50
2022-12-11T14:22:29.921Z,92932.59
2022-12-11T14:24:59.080Z,92939.41
2022-12-11T14:27:27.726Z,92937.13
2022-12-11T14:29:55.071Z,92947.81
2022-12-11T14:32:43.283Z,92949.78
2022-12-11T14:35:24.221Z,92941.22
2022-12-11T14:37:52.347Z,92953.09
2022-12-11T14:40:23.899Z,92952.50
2022-12-11T14:43:00.134Z,92963.03
2022-12-11T14:45:38.598Z,92965.56
2022-12-11T14:48:20.889Z,92961.88
2022-12-11T14:51:01.163Z,92969.59
2022-12-11T14:53:40.257Z,92976.09
2022-12-11T14:56:09.794Z,92974.00
2022-12-11T14:58:46.847Z,92979.94
2022-12-11T15:01:25.585Z,92976.69
2022-12-11T15:04:14.641Z,92981.66
2022-12-11T15:06:49.124Z,92984.47
2022-12-11T15:09:34.015Z,92984.47
2022-12-11T15:12:11.323Z,92981.00
2022-12-11T15:14:50.341Z,92990.06
2022-12-11T15:17:18.794Z,92986.53
2022-12-11T15:19:51.692Z,92987.16
2022-12-11T15:22:23.800Z,92986.84
2022-12-11T15:24:53.258Z,92988.03
2022-12-11T15:27:25.201Z,92989.09
2022-12-11T15:29:52.027Z,92988.94
2022-12-11T15:32:21.786Z,92997.84
2022-12-11T15:34:51.470Z,92989.00
2022-12-11T15:37:22.851Z,92989.72
2022-12-11T15:39:50.233Z,92997.84
2022-12-11T15:42:41.739Z,92988.91
2022-12-11T15:45:16.601Z,92995.25
2022-12-11T15:47:43.969Z,92999.28
2022-12-11T15:50:22.962Z,92990.47
2022-12-11T15:52:51.489Z,92997.53
2022-12-11T15:55:19.598Z,92996.75
2022-12-11T15:57:51.344Z,92998.91
2022-12-11T16:00:19.386Z,92996.06
2022-12-11T16:02:46.653Z,93005.03
2022-12-11T16:05:14.491Z,93006.56
2022-12-11T16:07:41.770Z,93000.16
2022-12-11T16:10:14.506Z,92999.78
2022-12-11T16:12:42.005Z,93007.03
2022-12-11T16:15:09.788Z,92995.38
2022-12-11T16:17:36.865Z,92997.59
2022-12-11T16:20:04.056Z,92995.72
2022-12-11T16:22:31.142Z,92999.97
2022-12-11T16:24:57.767Z,92997.19
2022-12-11T16:27:24.458Z,92996.56
2022-12-11T16:29:51.352Z,93003.47
2022-12-11T16:32:18.639Z,92995.03
2022-12-11T16:34:45.294Z,93001.16
2022-12-11T16:37:12.951Z,92995.38
2022-12-11T16:39:39.852Z,92990.81
2022-12-11T16:42:07.152Z,93003.16
2022-12-11T16:44:33.987Z,93000.53
2022-12-11T16:47:00.725Z,93003.94
2022-12-11T16:49:27.373Z,93002.41
2022-12-11T16:51:54.044Z,93002.19
2022-12-11T16:54:20.726Z,92995.84
2022-12-11T16:56:47.442Z,92998.94
2022-12-11T16:59:14.094Z,93003.91
2022-12-11T17:01:41.144Z,93001.31
2022-12-11T17:04:07.925Z,93001.81
2022-12-11T17:06:34.702Z,93002.94
2022-12-11T17:09:01.515Z,93003.19
2022-12-11T17:11:28.323Z,93003.44
2022-12-11T17:13:56.665Z,93007.19
2022-12-11T17:16:26.139Z,93004.50
2022-12-11T17:18:53.189Z,92994.28
2022-12-11T17:21:22.310Z,92995.25
2022-12-11T17:23:49.919Z,92998.63
2022-12-11T17:26:17.186Z,92999.13
2022-12-11T17:28:44.407Z,92991.53
2022-12-11T17:31:17.341Z,92993.53
2022-12-11T17:33:45.178Z,92993.31
2022-12-11T17:36:14.483Z,92991.16
2022-12-11T17:38:41.521Z,92982.88
2022-12-11T17:41:13.119Z,92989.38
2022-12-11T17:43:43.568Z,92983.75
2022-12-11T17:46:11.641Z,92980.88
2022-12-11T17:48:38.699Z,92985.03
2022-12-11T17:51:07.808Z,92982.66
2022-12-11T17:53:36.299Z,92984.38
2022-12-11T17:56:06.455Z,92983.28
2022-12-11T17:58:34.083Z,92978.03
2022-12-11T18:01:05.776Z,92979.66
2022-12-11T18:03:32.504Z,92983.97
2022-12-11T18:06:04.833Z,92980.38
2022-12-11T18:08:31.991Z,92984.63
2022-12-11T18:11:09.591Z,92989.94
2022-12-11T18:13:36.409Z,92987.31
2022-12-11T18:16:06.038Z,92987.50
2022-12-11T18:18:33.251Z,92993.97
2022-12-11T18:21:00.367Z,92993.31
2022-12-11T18:23:27.505Z,92990.53
2022-12-11T18:25:54.692Z,92983.03
2022-12-11T18:28:21.506Z,92987.53
2022-12-11T18:30:48.316Z,92983.41
2022-12-11T18:33:15.109Z,92987.56
2022-12-11T18:35:42.148Z,92991.47
2022-12-11T18:38:10.470Z,92991.34
2022-12-11T18:40:38.435Z,92992.91
2022-12-11T18:43:05.105Z,92994.28
2022-12-11T18:45:32.196Z,92989.47
2022-12-11T18:47:59.100Z,92995.19
2022-12-11T18:50:25.918Z,92994.59
2022-12-11T18:52:54.623Z,92996.81
2022-12-11T18:55:21.714Z,93005.72
2022-12-11T18:57:48.651Z,93003.69
2022-12-11T19:00:16.429Z,93001.06
2022-12-11T19:02:43.166Z,93008.59
2022-12-11T19:05:10.792Z,93006.38
2022-12-11T19:07:37.893Z,93003.91
2022-12-11T19:10:05.523Z,92999.88
2022-12-11T19:12:32.167Z,93003.94
2022-12-11T19:14:58.931Z,93003.78
2022-12-11T19:17:25.649Z,93006.63
2022-12-11T19:19:52.368Z,93004.59
2022-12-11T19:22:19.064Z,93006.19
2022-12-11T19:24:45.776Z,92993.03
2022-12-11T19:27:13.840Z,93001.81
2022-12-11T19:29:41.315Z,93002.56
2022-12-11T19:32:08.184Z,93003.50
2022-12-11T19:34:34.860Z,93000.25
2022-12-11T19:37:01.508Z,92994.13
2022-12-11T19:39:28.179Z,93005.25
2022-12-11T19:41:54.866Z,92993.06
2022-12-11T19:44:21.582Z,93004.94
2022-12-11T19:46:48.363Z,93008.53
2022-12-11T19:49:15.470Z,93012.28
2022-12-11T19:51:42.270Z,93006.03
2022-12-11T19:54:13.039Z,93006.19
2022-12-11T19:56:39.786Z,93008.53
2022-12-11T19:59:08.939Z,92998.69
2022-12-11T20:01:37.592Z,93004.31
2022-12-11T20:04:15.016Z,93008.53
2022-12-11T20:06:43.569Z,93014.44
2022-12-11T20:09:12.014Z,93007.28
2022-12-11T20:11:40.962Z,93009.28
2022-12-11T20:14:07.862Z,93014.13
2022-12-11T20:17:02.147Z,93010.72
2022-12-11T20:19:21.256Z,93013.84
2022-12-11T20:21:48.107Z,93014.25
2022-12-11T20:24:14.803Z,93014.25
2022-12-11T20:26:41.521Z,93019.53
2022-12-11T20:29:08.468Z,93014.84
2022-12-11T20:31:36.791Z,93005.66
2022-12-11T20:34:04.549Z,93020.50
2022-12-11T20:36:31.696Z,93013.78
2022-12-11T20:38:58.937Z,93014.06
2022-12-11T20:41:26.684Z,93024.16
2022-12-11T20:43:54.216Z,93023.41
2022-12-11T20:46:25.101Z,93020.31
2022-12-11T20:48:53.136Z,93022.66
2022-12-11T20:51:25.685Z,93015.31
2022-12-11T20:54:01.253Z,93027.19
2022-12-11T20:56:30.903Z,93019.09
2022-12-11T20:58:59.134Z,93024.06
2022-12-11T21:01:28.428Z,93025.88
2022-12-11T21:03:55.138Z,93029.94
2022-12-11T21:06:25.851Z,93025.03
2022-12-11T21:08:53.570Z,93027.13
2022-12-11T21:11:20.978Z,93028.25
2022-12-11T21:13:47.733Z,93029.16
2022-12-11T21:16:14.570Z,93031.53
2022-12-11T21:18:41.621Z,93032.44
2022-12-11T21:21:08.368Z,93034.31
2022-12-11T21:23:35.422Z,93030.25
2022-12-11T21:26:03.225Z,93033.53
2022-12-11T21:28:35.246Z,93031.19
2022-12-11T21:31:05.454Z,93031.78
2022-12-11T21:33:32.155Z,93025.63
2022-12-11T21:36:00.320Z,93030.63
2022-12-11T21:38:27.896Z,93029.34
2022-12-11T21:40:55.595Z,93025.09
2022-12-11T21:43:22.342Z,93023.59
2022-12-11T21:46:04.904Z,93026.34
2022-12-11T21:48:31.947Z,93031.25
2022-12-11T21:51:06.760Z,93030.22
2022-12-11T21:53:33.569Z,93029.34
2022-12-11T21:56:00.265Z,93032.53
2022-12-11T21:58:26.912Z,93033.63
2022-12-11T22:00:53.606Z,93027.19
2022-12-11T22:03:20.449Z,93031.22
2022-12-11T22:05:47.074Z,93033.22
2022-12-11T22:08:13.795Z,93028.78
2022-12-11T22:10:40.420Z,93032.97
2022-12-11T22:13:07.077Z,93030.56
2022-12-11T22:15:33.769Z,93029.66
2022-12-11T22:18:00.394Z,93030.06
2022-12-11T22:20:27.061Z,93027.09
2022-12-11T22:22:53.705Z,93034.41
2022-12-11T22:25:20.361Z,93032.06
2022-12-11T22:27:47.026Z,93038.75
2022-12-11T22:30:14.057Z,93033.53
2022-12-11T22:32:40.715Z,93037.91
2022-12-11T22:35:07.665Z,93033.69
2022-12-11T22:37:34.290Z,93032.72
2022-12-11T22:40:01.195Z,93034.97
2022-12-11T22:42:27.881Z,93024.59
2022-12-11T22:44:54.508Z,93024.69
2022-12-11T22:47:21.159Z,93033.88
2022-12-11T22:49:47.927Z,93021.13
2022-12-11T22:52:14.561Z,93025.91
2022-12-11T22:54:42.492Z,93029.91
2022-12-11T22:57:09.381Z,93027.75
2022-12-11T22:59:36.474Z,93023.94
2022-12-11T23:02:03.382Z,93020.75
2022-12-11T23:04:30.695Z,93029.44
2022-12-11T23:06:57.684Z,93034.19
2022-12-11T23:09:24.534Z,93032.94
2022-12-11T23:11:51.707Z,93029.81
2022-12-11T23:14:19.030Z,93030.09
2022-12-11T23:16:45.723Z,93037.88
2022-12-11T23:19:13.013Z,93026.59
2022-12-11T23:21:40.366Z,93028.34
2022-12-11T23:24:07.611Z,93031.53
2022-12-11T23:26:34.422Z,93021.09
2022-12-11T23:29:02.013Z,93026.78
2022-12-11T23:31:30.092Z,93019.03
2022-12-11T23:33:57.191Z,93024.22
2022-12-11T23:36:25.293Z,93029.91
2022-12-11T23:38:55.024Z,93027.56
2022-12-11T23:41:22.151Z,93029.72
2022-12-11T23:43:48.818Z,93027.88
2022-12-11T23:46:21.545Z,93028.03
2022-12-11T23:48:48.871Z,93028.66
2022-12-11T23:51:17.851Z,93032.06
2022-12-11T23:53:45.077Z,93035.94
2022-12-11T23:56:16.141Z,93032.63
2022-12-11T23:58:42.820Z,93024.09
